createdAt,value
2023-04-20T00:01:19.008Z,2.33
2023-04-20T00:03:45.689Z,2.63
2023-04-20T00:06:12.313Z,2.95
2023-04-20T00:08:38.759Z,2.70
2023-04-20T00:11:05.373Z,3.05
2023-04-20T00:13:31.907Z,2.70
2023-04-20T00:15:58.379Z,3.00
2023-04-20T00:18:24.855Z,3.08
2023-04-20T00:20:51.448Z,2.92
2023-04-20T00:23:17.949Z,2.72
2023-04-20T00:25:44.493Z,2.75
2023-04-20T00:28:11.105Z,2.60
2023-04-20T00:30:37.638Z,2.53
2023-04-20T00:33:04.290Z,2.75
2023-04-20T00:35:30.798Z,2.80
2023-04-20T00:37:57.337Z,2.42
2023-04-20T00:40:23.883Z,2.45
2023-04-20T00:42:50.374Z,2.58
2023-04-20T00:45:16.925Z,1.85
2023-04-20T00:47:43.466Z,2.72
2023-04-20T00:50:11.435Z,2.35
2023-04-20T00:52:38.015Z,2.70
2023-04-20T00:55:06.203Z,2.70
2023-04-20T00:57:32.850Z,2.35
2023-04-20T00:59:59.467Z,2.35
2023-04-20T01:02:26.225Z,2.50
2023-04-20T01:04:52.870Z,2.55
2023-04-20T01:07:19.367Z,2.40
2023-04-20T01:09:46.035Z,2.55
2023-04-20T01:12:12.564Z,2.30
2023-04-20T01:14:39.066Z,2.35
2023-04-20T01:17:06.143Z,2.75
2023-04-20T01:19:33.590Z,2.45
2023-04-20T01:22:00.191Z,2.47
2023-04-20T01:24:27.668Z,2.10
2023-04-20T01:26:54.276Z,2.20
2023-04-20T01:29:20.886Z,2.60
2023-04-20T01:31:47.495Z,2.40
2023-04-20T01:34:15.177Z,2.22
2023-04-20T01:36:41.773Z,2.80
2023-04-20T01:39:08.708Z,2.45
2023-04-20T01:41:35.462Z,2.40
2023-04-20T01:44:01.950Z,2.38
2023-04-20T01:46:28.471Z,2.60
2023-04-20T01:48:55.254Z,2.20
2023-04-20T01:51:22.265Z,2.28
2023-04-20T01:53:48.756Z,2.40
2023-04-20T01:56:15.562Z,2.05
2023-04-20T01:58:42.830Z,2.08
2023-04-20T02:06:25.745Z,2.05
2023-04-20T02:08:51.549Z,2.05
2023-04-20T02:11:17.405Z,1.95
2023-04-20T02:13:43.223Z,1.98
2023-04-20T02:16:09.074Z,2.20
2023-04-20T02:18:34.876Z,2.53
2023-04-20T02:21:01.004Z,2.03
2023-04-20T02:23:27.453Z,2.00
2023-04-20T02:28:34.880Z,2.00
2023-04-20T02:31:01.444Z,2.50
2023-04-20T02:33:28.157Z,1.88
2023-04-20T02:35:54.801Z,2.20
2023-04-20T02:41:01.941Z,2.38
2023-04-20T02:43:28.496Z,2.25
2023-04-20T02:45:55.065Z,2.33
2023-04-20T02:48:22.075Z,2.25
2023-04-20T02:53:29.353Z,2.00
2023-04-20T02:55:55.876Z,1.75
2023-04-20T02:58:22.405Z,1.98
2023-04-20T03:00:48.998Z,2.20
2023-04-20T03:03:15.750Z,2.00
2023-04-20T03:05:42.434Z,1.75
2023-04-20T03:08:08.920Z,1.88
2023-04-20T03:10:35.544Z,2.20
2023-04-20T03:13:01.995Z,1.63
2023-04-20T03:15:28.490Z,2.28
2023-04-20T03:17:55.036Z,2.22
2023-04-20T03:20:21.649Z,1.70
2023-04-20T03:22:48.140Z,2.20
2023-04-20T03:25:14.877Z,2.10
2023-04-20T03:27:41.395Z,1.98
2023-04-20T03:30:08.717Z,2.33
2023-04-20T03:32:35.467Z,2.03
2023-04-20T03:35:02.035Z,1.75
2023-04-20T03:37:28.549Z,2.25
2023-04-20T03:39:55.104Z,2.53
2023-04-20T03:42:21.579Z,2.40
2023-04-20T03:44:48.072Z,2.40
2023-04-20T03:47:14.746Z,2.35
2023-04-20T03:49:41.254Z,3.22
2023-04-20T03:52:07.766Z,2.25
2023-04-20T03:54:34.254Z,2.33
2023-04-20T03:57:00.994Z,2.38
2023-04-20T03:59:27.790Z,2.05
2023-04-20T04:01:54.779Z,2.22
2023-04-20T04:04:21.514Z,1.90
2023-04-20T04:06:48.480Z,2.00
2023-04-20T04:09:15.142Z,2.45
2023-04-20T04:11:41.744Z,1.92
2023-04-20T04:14:08.349Z,2.08
2023-04-20T04:16:34.861Z,2.20
2023-04-20T04:19:01.506Z,2.10
2023-04-20T04:21:28.801Z,2.17
2023-04-20T04:23:55.899Z,2.30
2023-04-20T04:26:24.674Z,2.10
2023-04-20T04:28:51.838Z,2.22
2023-04-20T04:31:21.805Z,2.50
2023-04-20T04:33:49.549Z,2.25
2023-04-20T04:36:16.223Z,2.30
2023-04-20T04:38:44.597Z,2.40
2023-04-20T04:41:14.596Z,2.38
2023-04-20T04:43:42.276Z,2.33
2023-04-20T04:46:09.894Z,2.28
2023-04-20T04:48:37.509Z,2.30
2023-04-20T04:51:04.727Z,2.58
2023-04-20T04:53:31.224Z,2.20
2023-04-20T04:55:57.722Z,2.38
2023-04-20T04:58:24.231Z,2.60
2023-04-20T05:00:50.966Z,2.20
2023-04-20T05:03:17.653Z,2.10
2023-04-20T05:05:44.421Z,2.50
2023-04-20T05:08:11.210Z,2.45
2023-04-20T05:10:37.852Z,2.33
2023-04-20T05:13:04.440Z,2.50
2023-04-20T05:15:30.889Z,2.53
2023-04-20T05:17:57.527Z,2.63
2023-04-20T05:20:24.210Z,2.70
2023-04-20T05:22:50.751Z,2.50
2023-04-20T05:25:18.344Z,2.95
2023-04-20T05:27:44.921Z,2.47
2023-04-20T05:30:20.208Z,2.67
2023-04-20T05:32:51.522Z,2.67
2023-04-20T05:35:19.222Z,2.90
2023-04-20T05:37:47.565Z,2.80
2023-04-20T05:40:15.218Z,2.53
2023-04-20T05:42:41.713Z,2.67
2023-04-20T05:45:09.016Z,2.80
2023-04-20T05:47:35.787Z,2.83
2023-04-20T05:50:02.449Z,2.70
2023-04-20T05:52:29.012Z,2.72
2023-04-20T05:54:55.658Z,2.05
2023-04-20T05:57:24.378Z,3.15
2023-04-20T05:59:51.593Z,2.45
2023-04-20T06:02:18.178Z,2.72
2023-04-20T06:04:44.925Z,2.70
2023-04-20T06:07:11.591Z,3.22
2023-04-20T06:09:38.134Z,2.20
2023-04-20T06:12:04.865Z,2.97
2023-04-20T06:14:31.379Z,2.53
2023-04-20T06:16:57.882Z,1.63
2023-04-20T06:19:24.437Z,2.47
2023-04-20T06:21:51.019Z,2.72
2023-04-20T06:24:17.545Z,2.83
2023-04-20T06:26:44.173Z,2.97
2023-04-20T06:29:10.744Z,3.53
2023-04-20T06:31:37.357Z,2.28
2023-04-20T06:34:03.994Z,3.85
2023-04-20T06:36:31.193Z,3.10
2023-04-20T06:38:57.770Z,2.72
2023-04-20T06:41:24.252Z,3.22
2023-04-20T06:43:51.607Z,3.03
2023-04-20T06:46:18.185Z,2.85
2023-04-20T06:48:44.732Z,2.60
2023-04-20T06:51:13.900Z,3.17
2023-04-20T06:53:40.331Z,2.60
2023-04-20T06:56:07.097Z,2.85
2023-04-20T06:58:33.588Z,2.58
2023-04-20T07:01:00.221Z,2.90
2023-04-20T07:03:26.833Z,2.47
2023-04-20T07:05:53.484Z,3.10
2023-04-20T07:08:20.252Z,2.70
2023-04-20T07:10:46.804Z,2.97
2023-04-20T07:13:13.349Z,3.00
2023-04-20T07:15:39.871Z,2.67
2023-04-20T07:18:06.652Z,2.83
2023-04-20T07:20:33.263Z,2.17
2023-04-20T07:22:59.787Z,3.92
2023-04-20T07:25:26.388Z,3.63
2023-04-20T07:27:52.963Z,4.00
2023-04-20T07:30:19.708Z,3.08
2023-04-20T07:32:46.224Z,3.20
2023-04-20T07:35:12.780Z,3.70
2023-04-20T07:37:39.429Z,4.32
2023-04-20T07:40:07.766Z,3.50
2023-04-20T07:42:36.976Z,3.78
2023-04-20T07:45:05.039Z,4.25
2023-04-20T07:47:33.072Z,4.07
2023-04-20T07:49:59.693Z,3.75
2023-04-20T07:52:26.324Z,4.32
2023-04-20T07:54:58.046Z,3.63
2023-04-20T07:57:24.941Z,2.63
2023-04-20T07:59:52.061Z,4.25
2023-04-20T08:02:19.090Z,3.72
2023-04-20T08:04:46.539Z,4.47
2023-04-20T08:07:14.121Z,4.28
2023-04-20T08:09:40.902Z,4.22
2023-04-20T08:12:07.669Z,4.60
2023-04-20T08:14:34.118Z,3.38
2023-04-20T08:17:00.779Z,3.83
2023-04-20T08:19:27.254Z,4.05
2023-04-20T08:21:54.386Z,3.72
2023-04-20T08:24:21.174Z,3.22
2023-04-20T08:26:47.831Z,4.13
2023-04-20T08:29:14.444Z,3.58
2023-04-20T08:31:41.123Z,3.40
2023-04-20T08:34:07.747Z,3.30
2023-04-20T08:36:34.239Z,3.60
2023-04-20T08:39:15.248Z,3.40
2023-04-20T08:41:41.860Z,3.67
2023-04-20T08:44:08.650Z,3.65
2023-04-20T08:46:35.472Z,3.25
2023-04-20T08:49:03.524Z,3.10
2023-04-20T08:51:32.421Z,3.47
2023-04-20T08:56:36.271Z,3.70
2023-04-20T08:59:03.964Z,3.63
2023-04-20T09:01:35.579Z,3.72
2023-04-20T09:04:03.687Z,3.80
2023-04-20T09:06:31.148Z,3.22
2023-04-20T09:08:57.743Z,3.42
2023-04-20T09:11:25.799Z,3.50
2023-04-20T09:14:04.784Z,3.42
2023-04-20T09:16:32.136Z,3.53
2023-04-20T09:18:58.873Z,3.55
2023-04-20T09:21:28.251Z,3.55
2023-04-20T09:24:08.529Z,3.95
2023-04-20T09:26:36.228Z,3.30
2023-04-20T09:29:03.846Z,4.03
2023-04-20T09:31:30.587Z,2.90
2023-04-20T09:34:04.405Z,3.55
2023-04-20T09:36:39.140Z,3.10
2023-04-20T09:39:13.158Z,3.28
2023-04-20T09:41:41.032Z,3.05
2023-04-20T09:44:08.846Z,2.80
2023-04-20T09:46:37.805Z,3.33
2023-04-20T09:49:07.086Z,2.88
2023-04-20T09:51:35.728Z,2.28
2023-04-20T09:54:05.721Z,2.70
2023-04-20T09:56:35.917Z,2.90
2023-04-20T09:59:03.925Z,2.50
2023-04-20T10:01:33.716Z,3.05
2023-04-20T10:04:01.607Z,2.60
2023-04-20T10:06:31.857Z,3.50
2023-04-20T10:09:01.271Z,2.97
2023-04-20T10:11:49.189Z,3.00
2023-04-20T10:14:24.945Z,3.58
2023-04-20T10:17:09.437Z,3.13
2023-04-20T10:19:41.948Z,3.50
2023-04-20T10:22:10.413Z,3.40
2023-04-20T10:24:46.182Z,3.00
2023-04-20T10:27:20.327Z,3.20
2023-04-20T10:29:47.443Z,3.00
2023-04-20T10:32:28.044Z,2.95
2023-04-20T10:35:03.028Z,2.50
2023-04-20T10:37:29.815Z,2.40
2023-04-20T10:39:56.539Z,2.70
2023-04-20T10:42:23.147Z,2.85
2023-04-20T10:44:50.071Z,2.78
2023-04-20T10:47:17.935Z,2.53
2023-04-20T10:49:44.982Z,2.80
2023-04-20T10:52:11.654Z,2.25
2023-04-20T10:54:39.519Z,2.40
2023-04-20T10:57:06.856Z,2.83
2023-04-20T10:59:42.086Z,2.42
2023-04-20T11:02:10.870Z,2.40
2023-04-20T11:07:14.842Z,1.98
2023-04-20T11:09:43.044Z,2.40
2023-04-20T11:12:16.058Z,2.30
2023-04-20T11:14:54.779Z,1.83
2023-04-20T11:17:34.549Z,2.03
2023-04-20T11:20:10.986Z,1.92
2023-04-20T11:22:39.509Z,1.90
2023-04-20T11:25:07.886Z,2.05
2023-04-20T11:27:35.554Z,1.25
2023-04-20T11:30:09.034Z,1.90
2023-04-20T11:32:36.507Z,1.67
2023-04-20T11:35:07.893Z,1.60
2023-04-20T11:37:55.340Z,1.45
2023-04-20T11:40:22.077Z,2.15
2023-04-20T11:42:48.583Z,1.77
2023-04-20T11:45:15.848Z,2.00
2023-04-20T11:47:42.359Z,1.95
2023-04-20T11:50:10.404Z,1.98
2023-04-20T11:52:37.133Z,1.70
2023-04-20T11:55:03.926Z,2.15
2023-04-20T11:57:30.417Z,1.80
2023-04-20T11:59:57.063Z,1.50
2023-04-20T12:02:23.921Z,2.08
2023-04-20T12:04:50.672Z,2.00
2023-04-20T12:07:17.304Z,1.88
2023-04-20T12:09:44.527Z,2.08
2023-04-20T12:12:11.105Z,2.00
2023-04-20T12:14:37.638Z,1.83
2023-04-20T12:17:04.745Z,2.17
2023-04-20T12:19:31.993Z,1.95
2023-04-20T12:21:58.782Z,1.70
2023-04-20T12:24:25.366Z,1.92
2023-04-20T12:26:51.949Z,1.60
2023-04-20T12:29:19.886Z,1.58
2023-04-20T12:31:46.736Z,2.03
2023-04-20T12:34:13.336Z,2.10
2023-04-20T12:36:40.150Z,2.28
2023-04-20T12:39:06.858Z,2.15
2023-04-20T12:41:34.363Z,1.90
2023-04-20T12:44:03.398Z,1.90
2023-04-20T12:46:31.363Z,1.90
2023-04-20T12:48:57.915Z,1.92
2023-04-20T12:51:24.529Z,1.80
2023-04-20T12:53:51.037Z,2.03
2023-04-20T12:56:17.551Z,1.52
2023-04-20T12:58:44.483Z,1.70
2023-04-20T13:01:11.119Z,2.05
2023-04-20T13:03:37.868Z,2.15
2023-04-20T13:06:05.835Z,1.83
2023-04-20T13:08:32.434Z,1.63
2023-04-20T13:10:59.032Z,1.80
2023-04-20T13:13:25.635Z,1.67
2023-04-20T13:15:54.485Z,2.00
2023-04-20T13:18:21.928Z,2.10
2023-04-20T13:20:48.629Z,1.80
2023-04-20T13:23:15.426Z,2.45
2023-04-20T13:25:42.203Z,2.30
2023-04-20T13:28:14.740Z,2.28
2023-04-20T13:30:41.557Z,2.30
2023-04-20T13:33:08.202Z,2.20
2023-04-20T13:35:34.999Z,2.08
2023-04-20T13:38:01.845Z,2.13
2023-04-20T13:40:28.362Z,2.35
2023-04-20T13:42:54.898Z,2.50
2023-04-20T13:45:21.496Z,2.50
2023-04-20T13:47:48.168Z,2.22
2023-04-20T13:50:14.743Z,2.30
2023-04-20T13:52:41.345Z,2.08
2023-04-20T13:55:08.147Z,2.60
2023-04-20T13:57:34.665Z,2.67
2023-04-20T14:00:01.895Z,2.70
2023-04-20T14:02:29.936Z,2.40
2023-04-20T14:04:56.836Z,2.20
2023-04-20T14:07:23.834Z,2.10
2023-04-20T14:09:50.993Z,2.63
2023-04-20T14:12:17.577Z,2.35
2023-04-20T14:14:44.235Z,2.83
2023-04-20T14:17:11.658Z,2.40
2023-04-20T14:19:39.354Z,3.20
2023-04-20T14:22:05.831Z,2.42
2023-04-20T14:24:32.363Z,2.72
2023-04-20T14:26:59.441Z,3.20
2023-04-20T14:29:28.061Z,2.72
2023-04-20T14:31:54.653Z,3.00
2023-04-20T14:34:21.277Z,3.10
2023-04-20T14:36:48.212Z,3.20
2023-04-20T14:39:14.802Z,2.95
2023-04-20T14:41:41.366Z,2.72
2023-04-20T14:44:07.895Z,2.65
2023-04-20T14:46:34.453Z,2.67
2023-04-20T14:49:01.058Z,3.10
2023-04-20T14:51:28.290Z,2.75
2023-04-20T14:53:54.764Z,2.70
2023-04-20T14:56:21.263Z,3.15
2023-04-20T14:58:48.058Z,2.60
2023-04-20T15:01:14.960Z,3.05
2023-04-20T15:03:41.764Z,2.78
2023-04-20T15:06:08.585Z,3.00
2023-04-20T15:08:35.780Z,3.22
2023-04-20T15:11:03.967Z,3.40
2023-04-20T15:13:30.981Z,3.33
2023-04-20T15:15:57.514Z,3.60
2023-04-20T15:18:24.157Z,3.60
2023-04-20T15:20:52.388Z,2.92
2023-04-20T15:23:19.173Z,3.50
2023-04-20T15:25:45.759Z,4.22
2023-04-20T15:28:12.518Z,3.70
2023-04-20T15:30:39.119Z,3.50
2023-04-20T15:33:06.111Z,3.92
2023-04-20T15:35:33.489Z,4.18
2023-04-20T15:38:00.173Z,3.67
2023-04-20T15:40:27.535Z,3.72
2023-04-20T15:42:57.606Z,3.67
2023-04-20T15:45:24.632Z,3.17
2023-04-20T15:47:51.662Z,4.03
2023-04-20T15:50:18.376Z,4.05
2023-04-20T15:52:45.670Z,3.90
2023-04-20T15:55:12.253Z,3.42
2023-04-20T15:57:38.787Z,3.78
2023-04-20T16:00:05.986Z,3.88
2023-04-20T16:02:32.712Z,3.50
2023-04-20T16:05:00.080Z,3.50
2023-04-20T16:07:26.687Z,3.70
2023-04-20T16:09:53.244Z,3.70
2023-04-20T16:12:19.802Z,3.30
2023-04-20T16:14:46.635Z,3.38
2023-04-20T16:17:13.607Z,3.22
2023-04-20T16:19:40.329Z,2.63
2023-04-20T16:22:06.967Z,2.45
2023-04-20T16:24:33.546Z,3.15
2023-04-20T16:27:01.551Z,2.83
2023-04-20T16:29:29.083Z,2.78
2023-04-20T16:31:55.756Z,2.90
2023-04-20T16:34:22.554Z,2.63
2023-04-20T16:36:50.294Z,2.10
2023-04-20T16:39:17.779Z,2.42
2023-04-20T16:41:44.635Z,1.92
2023-04-20T16:44:13.690Z,2.33
2023-04-20T16:46:41.646Z,2.13
2023-04-20T16:49:09.141Z,2.33
2023-04-20T16:51:35.870Z,2.70
2023-04-20T16:54:02.532Z,2.33
2023-04-20T16:56:29.127Z,2.47
2023-04-20T16:58:56.014Z,2.75
2023-04-20T17:01:22.694Z,2.28
2023-04-20T17:03:49.404Z,2.50
2023-04-20T17:06:16.071Z,2.72
2023-04-20T17:08:42.664Z,3.50
2023-04-20T17:11:09.234Z,2.60
2023-04-20T17:13:35.940Z,3.35
2023-04-20T17:16:02.723Z,3.10
2023-04-20T17:18:29.376Z,3.03
2023-04-20T17:20:57.257Z,3.28
2023-04-20T17:23:24.052Z,3.53
2023-04-20T17:25:51.388Z,3.10
2023-04-20T17:28:18.440Z,3.00
2023-04-20T17:30:44.979Z,3.03
2023-04-20T17:33:14.540Z,3.00
2023-04-20T17:35:41.079Z,3.40
2023-04-20T17:38:07.576Z,2.53
2023-04-20T17:40:35.656Z,2.90
2023-04-20T17:43:02.327Z,2.40
2023-04-20T17:45:28.997Z,2.58
2023-04-20T17:47:55.796Z,3.08
2023-04-20T17:50:22.797Z,2.83
2023-04-20T17:52:49.565Z,2.63
2023-04-20T17:55:16.123Z,3.15
2023-04-20T17:57:42.649Z,3.30
2023-04-20T18:00:11.788Z,2.90
2023-04-20T18:02:39.879Z,2.63
2023-04-20T18:05:07.074Z,2.72
2023-04-20T18:07:33.947Z,2.95
2023-04-20T18:10:00.579Z,3.03
2023-04-20T18:12:27.360Z,2.75
2023-04-20T18:14:54.019Z,2.47
2023-04-20T18:17:20.897Z,2.63
2023-04-20T18:19:47.520Z,2.80
2023-04-20T18:22:14.651Z,2.72
2023-04-20T18:24:41.194Z,2.65
2023-04-20T18:27:07.925Z,2.50
2023-04-20T18:29:35.436Z,3.03
2023-04-20T18:32:02.132Z,2.95
2023-04-20T18:34:31.956Z,3.05
2023-04-20T18:36:58.641Z,2.92
2023-04-20T18:39:25.804Z,2.67
2023-04-20T18:41:52.446Z,2.97
2023-04-20T18:44:19.331Z,2.67
2023-04-20T18:46:46.712Z,2.83
2023-04-20T18:49:13.613Z,2.95
2023-04-20T18:51:40.451Z,3.03
2023-04-20T18:54:07.186Z,3.05
2023-04-20T18:56:33.894Z,3.13
2023-04-20T18:59:01.638Z,3.03
2023-04-20T19:01:28.587Z,3.00
2023-04-20T19:03:55.675Z,3.15
2023-04-20T19:06:22.509Z,3.00
2023-04-20T19:08:50.452Z,2.88
2023-04-20T19:11:17.243Z,3.28
2023-04-20T19:13:44.613Z,2.90
2023-04-20T19:16:12.374Z,3.80
2023-04-20T19:18:39.745Z,3.42
2023-04-20T19:21:06.534Z,3.25
2023-04-20T19:23:33.294Z,3.08
2023-04-20T19:25:59.969Z,3.25
2023-04-20T19:28:27.114Z,3.55
2023-04-20T19:30:53.906Z,3.38
2023-04-20T19:33:20.984Z,4.13
2023-04-20T19:35:51.075Z,3.72
2023-04-20T19:38:21.506Z,3.08
2023-04-20T19:40:48.928Z,3.70
2023-04-20T19:43:17.031Z,3.70
2023-04-20T19:45:44.143Z,3.67
2023-04-20T19:48:11.132Z,4.35
2023-04-20T19:50:37.705Z,4.50
2023-04-20T19:53:04.493Z,4.78
2023-04-20T19:55:31.738Z,4.95
2023-04-20T19:57:58.452Z,4.88
2023-04-20T20:00:25.266Z,4.10
2023-04-20T20:02:51.975Z,4.35
2023-04-20T20:05:18.733Z,4.25
2023-04-20T20:07:45.730Z,4.70
2023-04-20T20:10:12.343Z,4.80
2023-04-20T20:12:38.947Z,5.35
2023-04-20T20:15:05.691Z,4.68
2023-04-20T20:17:32.482Z,4.93
2023-04-20T20:20:00.372Z,4.97
2023-04-20T20:22:27.024Z,4.80
2023-04-20T20:24:54.731Z,4.70
2023-04-20T20:27:21.620Z,5.93
2023-04-20T20:29:48.346Z,5.70
2023-04-20T20:32:15.853Z,5.15
2023-04-20T20:34:42.792Z,5.03
2023-04-20T20:37:11.878Z,4.82
2023-04-20T20:42:06.388Z,5.30
2023-04-20T20:44:38.778Z,6.40
2023-04-20T20:47:06.615Z,5.85
2023-04-20T20:49:33.243Z,6.38
2023-04-20T20:52:01.392Z,5.18
2023-04-20T20:54:27.964Z,6.50
2023-04-20T20:56:54.481Z,6.13
2023-04-20T20:59:21.185Z,6.40
2023-04-20T21:01:47.898Z,5.57
2023-04-20T21:04:24.604Z,6.80
2023-04-20T21:06:51.254Z,6.22
2023-04-20T21:09:18.095Z,7.10
2023-04-20T21:11:44.796Z,7.20
2023-04-20T21:14:11.377Z,7.93
2023-04-20T21:16:38.229Z,6.50
2023-04-20T21:19:04.911Z,4.50
2023-04-20T21:21:32.786Z,7.30
2023-04-20T21:24:09.695Z,7.50
2023-04-20T21:26:41.253Z,7.75
2023-04-20T21:29:08.785Z,8.23
2023-04-20T21:31:51.986Z,7.45
2023-04-20T21:34:18.652Z,8.10
2023-04-20T21:36:45.157Z,8.02
2023-04-20T21:39:11.766Z,8.57
2023-04-20T21:41:38.302Z,7.53
2023-04-20T21:44:04.849Z,8.50
2023-04-20T21:46:31.480Z,8.43
2023-04-20T21:48:58.291Z,8.07
2023-04-20T21:51:24.844Z,9.07
2023-04-20T21:53:51.289Z,8.38
2023-04-20T21:56:18.441Z,8.70
2023-04-20T21:58:45.022Z,7.90
2023-04-20T22:01:11.596Z,8.88
2023-04-20T22:03:38.434Z,8.88
2023-04-20T22:06:05.647Z,9.30
2023-04-20T22:08:32.293Z,9.40
2023-04-20T22:10:58.801Z,9.73
2023-04-20T22:13:25.396Z,9.18
2023-04-20T22:15:52.833Z,9.82
2023-04-20T22:18:19.619Z,9.10
2023-04-20T22:20:46.162Z,9.85
2023-04-20T22:23:12.672Z,9.60
2023-04-20T22:25:51.224Z,9.80
2023-04-20T22:28:17.947Z,10.77
2023-04-20T22:30:44.457Z,9.75
2023-04-20T22:33:11.162Z,10.88
2023-04-20T22:35:37.758Z,10.70
2023-04-20T22:38:04.447Z,9.95
2023-04-20T22:40:31.083Z,11.38
2023-04-20T22:42:57.563Z,11.65
2023-04-20T22:45:24.104Z,10.50
2023-04-20T22:47:50.640Z,10.48
2023-04-20T22:50:17.483Z,9.75
2023-04-20T22:52:44.260Z,9.88
2023-04-20T22:55:11.165Z,10.68
2023-04-20T22:57:39.099Z,10.70
2023-04-20T23:00:08.040Z,9.98
2023-04-20T23:02:34.701Z,9.80
2023-04-20T23:05:01.553Z,10.43
2023-04-20T23:07:28.105Z,11.93
2023-04-20T23:09:56.446Z,8.02
2023-04-20T23:12:23.305Z,11.15
2023-04-20T23:14:50.781Z,10.95
2023-04-20T23:17:17.681Z,10.40
2023-04-20T23:19:44.221Z,11.38
2023-04-20T23:22:10.964Z,10.55
2023-04-20T23:24:37.556Z,11.82
2023-04-20T23:27:04.341Z,11.23
2023-04-20T23:29:30.911Z,9.98
2023-04-20T23:31:57.499Z,12.35
2023-04-20T23:34:24.082Z,12.75
2023-04-20T23:36:51.647Z,11.52
2023-04-20T23:39:21.463Z,10.38
2023-04-20T23:41:48.144Z,11.65
2023-04-20T23:44:14.832Z,10.57
2023-04-20T23:46:41.416Z,12.07
2023-04-20T23:49:07.981Z,12.02
2023-04-20T23:51:34.424Z,9.77
2023-04-20T23:54:00.946Z,11.25
2023-04-20T23:56:27.444Z,10.93
2023-04-20T23:58:54.235Z,10.57
